Time;durP1;ratioP1;P1;durP2;ratioP2;P2;SDS_P1;SDS_P2;PMS_P1;PMS_P2;Temp;Humidity;BMP_temperature;BMP_pressure;BME280_temperature;BME280_humidity;BME280_pressure;Samples;Min_cycle;Max_cycle;Signal;HPM_P1;HPM_P2
2022/12/05 00:01:41;;;;;;;13.93;9.50;;;;;;;;;;9990479;28;20066;-69
2022/12/05 00:06:35;;;;;;;14.40;11.70;;;;;;;;;;9990694;28;20501;-69
2022/12/05 00:11:31;;;;;;;14.82;11.15;;;;;;;;;;9991702;28;20051;-69
2022/12/05 00:16:26;;;;;;;14.95;12.10;;;;;;;;;;9990757;28;20145;-69
2022/12/05 00:21:22;;;;;;;18.08;11.63;;;;;;;;;;9988715;28;20050;-69
2022/12/05 00:26:15;;;;;;;17.30;11.98;;;;;;;;;;9990443;28;20054;-69
2022/12/05 00:31:11;;;;;;;18.83;13.63;;;;;;;;;;9990484;28;20053;-69
2022/12/05 00:36:09;;;;;;;18.15;13.35;;;;;;;;;;9990624;28;20147;-69
2022/12/05 00:41:22;;;;;;;19.50;14.18;;;;;;;;;;9989836;28;20050;-69
2022/12/05 00:46:17;;;;;;;22.83;16.17;;;;;;;;;;9989724;28;20054;-69
2022/12/05 00:51:16;;;;;;;21.23;14.82;;;;;;;;;;9990154;28;20457;-68
2022/12/05 00:56:13;;;;;;;24.90;16.33;;;;;;;;;;9989907;28;20043;-68
2022/12/05 01:01:14;;;;;;;20.33;15.18;;;;;;;;;;9989874;28;20077;-69
2022/12/05 01:06:09;;;;;;;19.38;13.60;;;;;;;;;;9989025;28;20100;-69
2022/12/05 01:11:03;;;;;;;22.05;16.27;;;;;;;;;;9989501;28;20093;-68
2022/12/05 01:15:57;;;;;;;25.13;17.40;;;;;;;;;;9987962;28;20138;-69
2022/12/05 01:20:51;;;;;;;24.63;16.08;;;;;;;;;;9986670;28;20141;-69
2022/12/05 01:25:47;;;;;;;21.10;15.23;;;;;;;;;;9986964;28;20453;-69
2022/12/05 01:30:44;;;;;;;24.08;15.68;;;;;;;;;;9982162;28;20081;-69
2022/12/05 01:35:38;;;;;;;26.02;16.17;;;;;;;;;;9988871;28;20081;-69
2022/12/05 01:40:32;;;;;;;28.98;15.75;;;;;;;;;;9988277;28;20569;-69
2022/12/05 01:45:35;;;;;;;25.40;16.30;;;;;;;;;;9988566;28;20058;-69
2022/12/05 01:50:29;;;;;;;27.58;15.23;;;;;;;;;;9987418;28;20108;-69
2022/12/05 01:55:24;;;;;;;18.98;14.05;;;;;;;;;;9988126;28;20061;-69
2022/12/05 02:00:19;;;;;;;17.90;13.15;;;;;;;;;;9985647;28;20054;-69
2022/12/05 02:05:29;;;;;;;20.05;12.98;;;;;;;;;;9984106;28;20089;-69
2022/12/05 02:10:24;;;;;;;18.05;11.30;;;;;;;;;;9987403;28;20081;-69
2022/12/05 02:15:32;;;;;;;17.83;11.60;;;;;;;;;;9987281;28;20073;-69
2022/12/05 02:20:30;;;;;;;16.65;11.15;;;;;;;;;;9987324;28;20081;-68
2022/12/05 02:26:12;;;;;;;16.95;12.45;;;;;;;;;;9986852;28;20089;-69
2022/12/05 02:31:23;;;;;;;;;;;;;;;;;;9985870;28;20105;-69
2022/12/05 02:36:24;;;;;;;18.17;12.30;;;;;;;;;;9994717;28;19922;-69
2022/12/05 02:41:58;;;;;;;15.88;11.63;;;;;;;;;;9994362;28;20129;-69
2022/12/05 02:47:11;;;;;;;14.52;9.95;;;;;;;;;;10026305;28;20552;-69
2022/12/05 02:52:07;;;;;;;17.70;10.93;;;;;;;;;;9991136;28;20137;-69
2022/12/05 02:57:01;;;;;;;16.45;10.52;;;;;;;;;;10005495;28;20058;-69
2022/12/05 03:01:55;;;;;;;21.55;11.70;;;;;;;;;;9993742;28;20054;-69
2022/12/05 03:07:06;;;;;;;15.68;11.30;;;;;;;;;;9993438;28;20105;-69
2022/12/05 03:12:10;;;;;;;20.27;12.93;;;;;;;;;;9993473;28;20065;-69
2022/12/05 03:17:09;;;;;;;18.05;12.15;;;;;;;;;;9994061;28;20050;-69
2022/12/05 03:22:34;;;;;;;23.52;14.60;;;;;;;;;;9993538;28;20053;-69
2022/12/05 03:27:36;;;;;;;19.40;12.35;;;;;;;;;;10002989;28;20516;-69
2022/12/05 03:33:00;;;;;;;21.83;13.75;;;;;;;;;;9991796;28;20065;-69
2022/12/05 03:38:02;;;;;;;22.02;14.02;;;;;;;;;;9992807;28;20058;-69
2022/12/05 03:43:02;;;;;;;21.98;13.98;;;;;;;;;;9976001;28;20474;-68
2022/12/05 03:47:57;;;;;;;;;;;;;;;;;;9988454;28;20054;-68
2022/12/05 03:53:10;;;;;;;24.55;14.98;;;;;;;;;;9988725;28;19928;-69
2022/12/05 03:58:19;;;;;;;24.60;15.13;;;;;;;;;;9991165;28;20058;-69
2022/12/05 04:03:18;;;;;;;27.08;15.93;;;;;;;;;;9991132;28;20133;-69
2022/12/05 04:08:19;;;;;;;38.10;15.40;;;;;;;;;;10006437;28;20422;-71
2022/12/05 04:13:36;;;;;;;28.17;16.83;;;;;;;;;;9991882;28;20061;-69
2022/12/05 04:18:30;;;;;;;27.50;15.85;;;;;;;;;;9990686;28;20581;-68
2022/12/05 04:23:25;;;;;;;29.73;14.27;;;;;;;;;;9989323;28;20574;-68
2022/12/05 04:28:33;;;;;;;21.42;13.95;;;;;;;;;;9990966;28;20137;-68
2022/12/05 04:33:34;;;;;;;18.17;12.48;;;;;;;;;;10003622;28;20133;-69
2022/12/05 04:38:34;;;;;;;16.92;12.02;;;;;;;;;;9986609;28;20089;-68
2022/12/05 04:43:29;;;;;;;21.45;13.95;;;;;;;;;;9971569;28;20086;-68
2022/12/05 04:48:24;;;;;;;18.92;11.35;;;;;;;;;;9988770;28;20054;-68
2022/12/05 04:53:19;;;;;;;19.60;12.63;;;;;;;;;;9988419;28;20058;-68
2022/12/05 04:58:15;;;;;;;19.15;13.98;;;;;;;;;;9989261;28;20046;-68
2022/12/05 05:03:15;;;;;;;25.90;15.10;;;;;;;;;;9989395;28;20061;-69
2022/12/05 05:08:19;;;;;;;24.98;15.98;;;;;;;;;;9989357;28;20171;-68
2022/12/05 05:13:19;;;;;;;27.70;15.65;;;;;;;;;;9989024;28;20058;-69
2022/12/05 05:18:13;;;;;;;25.10;16.10;;;;;;;;;;9988184;28;20133;-68
2022/12/05 05:23:13;;;;;;;31.38;18.10;;;;;;;;;;9984503;28;20064;-68
2022/12/05 05:28:07;;;;;;;31.70;18.45;;;;;;;;;;9989445;28;20050;-68
2022/12/05 05:33:00;;;;;;;26.27;17.98;;;;;;;;;;9985707;28;20074;-68
2022/12/05 05:37:53;;;;;;;26.42;15.57;;;;;;;;;;9982210;28;20051;-68
2022/12/05 05:42:47;;;;;;;29.70;17.63;;;;;;;;;;9973133;28;20120;-68
2022/12/05 05:47:41;;;;;;;31.98;17.95;;;;;;;;;;9982894;28;20057;-68
2022/12/05 05:52:35;;;;;;;32.58;18.88;;;;;;;;;;9987699;28;20064;-68
2022/12/05 05:57:30;;;;;;;33.05;18.95;;;;;;;;;;9985661;28;20421;-68
2022/12/05 06:02:23;;;;;;;33.65;19.75;;;;;;;;;;9985197;28;20057;-68
2022/12/05 06:07:18;;;;;;;36.38;20.85;;;;;;;;;;9990354;28;20406;-69
2022/12/05 06:12:12;;;;;;;38.53;23.48;;;;;;;;;;9996289;28;20050;-68
2022/12/05 06:17:05;;;;;;;41.28;25.00;;;;;;;;;;9995463;28;20051;-68
2022/12/05 06:21:59;;;;;;;46.75;25.65;;;;;;;;;;9986633;28;20077;-68
2022/12/05 06:26:53;;;;;;;43.45;27.05;;;;;;;;;;9986966;28;20074;-68
2022/12/05 06:31:46;;;;;;;47.42;26.25;;;;;;;;;;9987080;28;20054;-68
2022/12/05 06:36:41;;;;;;;47.55;28.13;;;;;;;;;;9994762;28;20054;-68
2022/12/05 06:41:34;;;;;;;46.65;25.17;;;;;;;;;;9990058;28;20054;-68
2022/12/05 06:46:28;;;;;;;49.00;26.52;;;;;;;;;;9977989;28;20050;-68
2022/12/05 06:51:22;;;;;;;48.80;25.85;;;;;;;;;;9994671;28;20070;-68
2022/12/05 06:56:18;;;;;;;54.00;28.08;;;;;;;;;;9982858;28;20053;-68
2022/12/05 07:06:30;;;;;;;62.08;28.33;;;;;;;;;;9991432;28;20050;-68
2022/12/05 07:11:24;;;;;;;63.90;29.00;;;;;;;;;;9982887;28;20066;-69
2022/12/05 07:16:17;;;;;;;68.97;30.58;;;;;;;;;;9987974;28;20058;-68
2022/12/05 07:21:13;;;;;;;71.13;32.15;;;;;;;;;;9992725;28;20065;-68
2022/12/05 07:26:08;;;;;;;61.33;30.92;;;;;;;;;;9991337;28;20062;-68
2022/12/05 07:31:04;;;;;;;56.95;30.17;;;;;;;;;;9988675;28;20572;-68
2022/12/05 07:36:05;;;;;;;60.30;29.85;;;;;;;;;;9987998;28;20136;-68
2022/12/05 07:40:59;;;;;;;57.97;31.65;;;;;;;;;;9981235;28;20051;-68
2022/12/05 07:45:53;;;;;;;57.03;30.92;;;;;;;;;;9978231;28;20055;-68
2022/12/05 07:50:46;;;;;;;72.45;34.20;;;;;;;;;;9991916;28;20577;-68
2022/12/05 07:55:41;;;;;;;63.63;33.08;;;;;;;;;;9991492;28;20050;-68
2022/12/05 08:00:35;;;;;;;70.35;35.03;;;;;;;;;;9990666;28;20065;-68
2022/12/05 08:05:29;;;;;;;66.55;35.10;;;;;;;;;;9983029;28;20046;-68
2022/12/05 08:10:22;;;;;;;65.50;32.75;;;;;;;;;;9992155;28;20395;-68
2022/12/05 08:15:16;;;;;;;68.45;35.72;;;;;;;;;;9986608;28;20108;-68
2022/12/05 08:20:12;;;;;;;63.72;32.80;;;;;;;;;;9984554;28;20058;-70
2022/12/05 08:25:07;;;;;;;68.82;33.33;;;;;;;;;;9986116;28;20082;-69
2022/12/05 08:30:01;;;;;;;57.95;31.67;;;;;;;;;;9985980;28;20461;-70
2022/12/05 08:34:55;;;;;;;62.83;32.58;;;;;;;;;;9990284;28;20193;-69
2022/12/05 08:39:49;;;;;;;63.83;33.95;;;;;;;;;;9990201;28;20065;-70
2022/12/05 08:44:43;;;;;;;70.90;34.17;;;;;;;;;;9981426;28;20069;-70
2022/12/05 08:49:37;;;;;;;64.00;33.60;;;;;;;;;;9987814;28;20053;-70
2022/12/05 08:54:30;;;;;;;60.85;32.17;;;;;;;;;;9985152;28;20039;-70
2022/12/05 08:59:24;;;;;;;62.90;33.40;;;;;;;;;;9988994;28;20134;-69
2022/12/05 09:04:18;;;;;;;57.92;31.88;;;;;;;;;;9986065;28;20054;-69
2022/12/05 09:09:12;;;;;;;57.28;29.85;;;;;;;;;;9984828;28;20133;-70
2022/12/05 09:14:05;;;;;;;58.10;31.75;;;;;;;;;;9987789;28;20497;-69
2022/12/05 09:18:59;;;;;;;67.78;35.55;;;;;;;;;;9988218;28;20058;-69
2022/12/05 09:23:52;;;;;;;65.13;38.47;;;;;;;;;;9985750;28;20084;-69
2022/12/05 09:28:46;;;;;;;67.78;38.33;;;;;;;;;;9987967;28;20081;-73
2022/12/05 09:33:39;;;;;;;82.00;40.30;;;;;;;;;;9986450;28;20126;-69
2022/12/05 09:38:33;;;;;;;69.57;37.88;;;;;;;;;;9983766;28;20481;-67
2022/12/05 09:43:36;;;;;;;81.72;39.50;;;;;;;;;;9985278;28;20055;-67
2022/12/05 09:48:30;;;;;;;89.07;42.80;;;;;;;;;;9985538;28;20050;-67
2022/12/05 09:53:36;;;;;;;97.53;44.42;;;;;;;;;;9986745;28;20065;-66
2022/12/05 09:58:38;;;;;;;89.78;45.90;;;;;;;;;;9986876;28;20051;-66
2022/12/05 10:04:02;;;;;;;105.30;45.35;;;;;;;;;;9987603;28;20074;-66
2022/12/05 10:09:07;;;;;;;93.85;43.72;;;;;;;;;;9982453;28;20467;-66
2022/12/05 10:14:15;;;;;;;89.57;39.33;;;;;;;;;;9985866;28;20489;-67
2022/12/05 10:19:15;;;;;;;88.03;41.25;;;;;;;;;;9985646;28;20058;-67
2022/12/05 10:24:15;;;;;;;86.68;41.28;;;;;;;;;;9986569;28;20153;-66
2022/12/05 10:29:17;;;;;;;80.28;38.72;;;;;;;;;;9985425;28;20386;-66
2022/12/05 10:34:30;;;;;;;79.68;37.45;;;;;;;;;;9986339;28;20112;-67
2022/12/05 10:39:23;;;;;;;83.95;39.60;;;;;;;;;;9985100;28;20058;-67
2022/12/05 10:44:19;;;;;;;82.57;36.95;;;;;;;;;;9984374;28;20149;-66
2022/12/05 10:49:15;;;;;;;78.28;36.47;;;;;;;;;;9986923;28;20124;-66
2022/12/05 10:54:19;;;;;;;74.53;36.40;;;;;;;;;;9993424;28;20058;-67
2022/12/05 10:59:15;;;;;;;77.95;35.58;;;;;;;;;;9990260;28;20535;-66
2022/12/05 11:04:18;;;;;;;80.72;36.63;;;;;;;;;;9993660;28;20054;-66
2022/12/05 11:09:32;;;;;;;67.88;32.67;;;;;;;;;;9993218;28;20052;-67
2022/12/05 11:14:27;;;;;;;69.25;35.05;;;;;;;;;;9993665;28;20418;-67
2022/12/05 11:19:20;;;;;;;73.20;37.83;;;;;;;;;;9993047;28;20042;-66
2022/12/05 11:24:34;;;;;;;78.75;39.55;;;;;;;;;;9992934;28;20084;-66
2022/12/05 11:29:38;;;;;;;69.72;35.03;;;;;;;;;;9992238;28;20092;-67
2022/12/05 11:34:43;;;;;;;65.75;35.00;;;;;;;;;;9992386;28;20042;-66
2022/12/05 11:39:43;;;;;;;78.65;35.65;;;;;;;;;;9991667;28;20572;-66
2022/12/05 11:44:38;;;;;;;74.70;38.80;;;;;;;;;;9989197;28;20046;-67
2022/12/05 11:49:50;;;;;;;83.70;43.03;;;;;;;;;;9992084;28;20517;-67
2022/12/05 11:54:52;;;;;;;85.75;38.50;;;;;;;;;;9991841;28;20101;-67
2022/12/05 12:00:10;;;;;;;73.53;38.03;;;;;;;;;;9992305;28;20442;-66
2022/12/05 12:05:21;;;;;;;76.95;39.60;;;;;;;;;;9991082;28;20050;-66
2022/12/05 12:10:35;;;;;;;79.80;41.25;;;;;;;;;;9978728;28;20538;-67
2022/12/05 12:15:55;;;;;;;90.68;41.17;;;;;;;;;;9990821;28;20390;-66
2022/12/05 12:21:21;;;;;;;83.50;40.55;;;;;;;;;;9990264;28;20054;-66
2022/12/05 12:26:45;;;;;;;74.10;37.35;;;;;;;;;;9989440;28;20061;-66
2022/12/05 12:31:52;;;;;;;90.82;44.25;;;;;;;;;;9989967;28;20060;-67
2022/12/05 12:37:00;;;;;;;101.43;49.45;;;;;;;;;;9990627;28;20097;-66
2022/12/05 12:42:11;;;;;;;84.78;41.83;;;;;;;;;;9989476;28;20054;-67
2022/12/05 12:47:46;;;;;;;94.32;46.13;;;;;;;;;;9990460;28;20426;-66
2022/12/05 12:53:17;;;;;;;115.32;50.40;;;;;;;;;;9990645;28;20064;-66
2022/12/05 12:58:13;;;;;;;101.65;47.92;;;;;;;;;;10004193;28;20054;-66
2022/12/05 13:03:11;;;;;;;82.55;41.38;;;;;;;;;;9989533;28;20070;-67
2022/12/05 13:08:09;;;;;;;82.68;40.95;;;;;;;;;;9984984;28;20121;-66
2022/12/05 13:13:04;;;;;;;88.10;48.67;;;;;;;;;;9988827;28;20046;-66
2022/12/05 13:17:57;;;;;;;82.65;41.47;;;;;;;;;;9987140;28;20133;-67
2022/12/05 13:22:51;;;;;;;59.70;35.60;;;;;;;;;;9989049;28;20486;-66
2022/12/05 13:27:58;;;;;;;77.55;38.13;;;;;;;;;;9985951;28;20052;-66
2022/12/05 13:32:56;;;;;;;62.80;37.65;;;;;;;;;;9987914;28;20105;-66
2022/12/05 13:43:02;;;;;;;83.15;41.13;;;;;;;;;;9976849;28;20057;-66
2022/12/05 13:48:20;;;;;;;92.53;44.05;;;;;;;;;;9988092;28;20117;-66
2022/12/05 13:53:41;;;;;;;98.15;45.33;;;;;;;;;;9987252;28;20054;-66
2022/12/05 13:58:39;;;;;;;85.70;41.35;;;;;;;;;;9982829;28;20109;-66
2022/12/05 14:03:34;;;;;;;73.32;33.42;;;;;;;;;;9984990;28;20417;-66
2022/12/05 14:08:30;;;;;;;67.78;33.13;;;;;;;;;;9987779;28;20064;-66
2022/12/05 14:13:24;;;;;;;64.53;35.90;;;;;;;;;;9987715;28;20100;-66
2022/12/05 14:18:42;;;;;;;54.10;29.77;;;;;;;;;;9987619;28;20057;-66
2022/12/05 14:23:49;;;;;;;42.17;26.70;;;;;;;;;;9987233;28;20069;-65
2022/12/05 14:29:09;;;;;;;48.08;25.98;;;;;;;;;;9995222;28;20046;-66
2022/12/05 14:34:26;;;;;;;48.13;27.33;;;;;;;;;;9993963;28;20145;-66
2022/12/05 14:39:32;;;;;;;35.95;23.25;;;;;;;;;;9994375;28;20137;-66
2022/12/05 14:44:30;;;;;;;36.03;20.13;;;;;;;;;;9991238;28;20405;-66
2022/12/05 14:49:54;;;;;;;34.63;20.77;;;;;;;;;;9989730;28;20101;-66
2022/12/05 14:54:51;;;;;;;25.17;16.98;;;;;;;;;;9993350;28;20173;-66
2022/12/05 14:59:48;;;;;;;27.73;16.55;;;;;;;;;;9992640;28;20054;-66
2022/12/05 15:04:46;;;;;;;29.20;17.50;;;;;;;;;;9994341;28;20065;-66
2022/12/05 15:10:00;;;;;;;25.20;16.10;;;;;;;;;;9994334;28;20083;-65
2022/12/05 15:15:02;;;;;;;24.63;16.45;;;;;;;;;;9989681;28;20128;-65
2022/12/05 15:20:06;;;;;;;29.17;15.52;;;;;;;;;;9993842;28;20405;-66
2022/12/05 15:25:24;;;;;;;70.65;51.75;;;;;;;;;;9992987;28;20060;-65
2022/12/05 15:30:19;;;;;;;47.40;37.63;;;;;;;;;;9991772;28;20049;-65
2022/12/05 15:35:13;;;;;;;41.45;30.08;;;;;;;;;;9992787;28;20053;-65
2022/12/05 15:40:06;;;;;;;43.17;29.48;;;;;;;;;;9991835;28;20490;-65
2022/12/05 15:45:14;;;;;;;39.65;27.50;;;;;;;;;;9992494;28;20085;-65
2022/12/05 15:50:25;;;;;;;34.80;22.67;;;;;;;;;;9991860;28;20577;-65
2022/12/05 15:55:48;;;;;;;36.08;22.08;;;;;;;;;;9991502;28;20084;-65
2022/12/05 16:00:45;;;;;;;36.40;20.52;;;;;;;;;;10007046;28;20078;-65
2022/12/05 16:06:04;;;;;;;35.28;19.67;;;;;;;;;;9990579;28;20109;-65
2022/12/05 16:11:09;;;;;;;34.28;20.65;;;;;;;;;;9991044;28;20055;-65
2022/12/05 16:16:05;;;;;;;35.33;20.08;;;;;;;;;;9991568;28;20048;-66
2022/12/05 16:20:59;;;;;;;27.58;17.10;;;;;;;;;;9991787;28;20064;-65
2022/12/05 16:25:53;;;;;;;26.08;17.33;;;;;;;;;;9980580;28;20051;-65
2022/12/05 16:31:00;;;;;;;24.75;14.82;;;;;;;;;;9989577;28;20058;-65
2022/12/05 16:36:09;;;;;;;25.17;14.75;;;;;;;;;;9989951;28;20054;-66
2022/12/05 16:41:07;;;;;;;23.25;13.95;;;;;;;;;;10005483;28;20069;-66
2022/12/05 16:46:12;;;;;;;25.42;14.77;;;;;;;;;;10000651;28;20050;-66
2022/12/05 16:51:20;;;;;;;22.27;13.52;;;;;;;;;;9990030;28;20519;-66
2022/12/05 16:56:24;;;;;;;16.92;12.73;;;;;;;;;;9984800;28;20051;-65
2022/12/05 17:01:23;;;;;;;18.95;14.05;;;;;;;;;;9987592;28;20129;-64
2022/12/05 17:06:23;;;;;;;18.33;11.65;;;;;;;;;;9988186;28;20401;-65
2022/12/05 17:11:20;;;;;;;15.98;11.63;;;;;;;;;;9989116;28;20046;-66
2022/12/05 17:16:15;;;;;;;88.15;54.33;;;;;;;;;;9988982;28;20050;-65
2022/12/05 17:21:16;;;;;;;116.13;72.30;;;;;;;;;;9987288;28;20070;-65
2022/12/05 17:26:13;;;;;;;115.65;65.00;;;;;;;;;;9984735;28;20073;-64
2022/12/05 17:31:08;;;;;;;90.00;53.80;;;;;;;;;;9988530;28;20129;-65
2022/12/05 17:36:04;;;;;;;178.07;93.60;;;;;;;;;;9988548;28;20054;-65
2022/12/05 17:41:01;;;;;;;36.67;30.55;;;;;;;;;;9988244;28;20052;-66
2022/12/05 17:46:01;;;;;;;21.25;16.75;;;;;;;;;;9988366;28;20122;-65
2022/12/05 17:50:58;;;;;;;21.83;16.45;;;;;;;;;;9987020;28;20050;-65
2022/12/05 17:55:51;;;;;;;21.05;14.48;;;;;;;;;;9987233;28;20114;-66
2022/12/05 18:00:45;;;;;;;22.70;16.13;;;;;;;;;;9987444;28;20062;-65
2022/12/05 18:05:38;;;;;;;19.70;15.95;;;;;;;;;;9988087;28;20056;-66
2022/12/05 18:10:33;;;;;;;18.45;14.13;;;;;;;;;;9987719;28;20078;-65
2022/12/05 18:15:28;;;;;;;17.55;14.30;;;;;;;;;;9986930;28;20576;-66
2022/12/05 18:20:22;;;;;;;16.48;13.70;;;;;;;;;;9988040;28;20054;-66
2022/12/05 18:25:15;;;;;;;24.55;15.07;;;;;;;;;;9987186;28;20140;-66
2022/12/05 18:30:10;;;;;;;18.75;13.13;;;;;;;;;;9980584;28;20088;-66
2022/12/05 18:35:04;;;;;;;18.20;14.35;;;;;;;;;;9985093;28;20121;-66
2022/12/05 18:40:05;;;;;;;18.67;14.05;;;;;;;;;;9980215;28;20066;-66
2022/12/05 18:44:59;;;;;;;14.57;12.95;;;;;;;;;;9986819;28;20441;-66
2022/12/05 18:49:53;;;;;;;15.52;12.70;;;;;;;;;;9987260;28;20412;-66
2022/12/05 18:54:46;;;;;;;19.80;15.10;;;;;;;;;;9986667;28;20074;-65
2022/12/05 19:00:00;;;;;;;17.50;14.82;;;;;;;;;;9987379;28;20046;-65
2022/12/05 19:04:54;;;;;;;19.15;14.65;;;;;;;;;;9987023;28;20081;-66
2022/12/05 19:09:49;;;;;;;16.83;14.43;;;;;;;;;;9986728;28;20042;-66
2022/12/05 19:14:45;;;;;;;19.42;13.95;;;;;;;;;;9994071;28;20061;-66
2022/12/05 19:19:43;;;;;;;20.50;15.55;;;;;;;;;;9993339;28;20051;-66
2022/12/05 19:24:37;;;;;;;17.90;14.60;;;;;;;;;;9987660;28;20073;-66
2022/12/05 19:29:31;;;;;;;18.58;15.10;;;;;;;;;;9993137;28;20058;-66
2022/12/05 19:34:25;;;;;;;17.60;13.30;;;;;;;;;;9992394;28;20058;-66
2022/12/05 19:39:20;;;;;;;20.30;14.43;;;;;;;;;;9989351;28;20057;-66
2022/12/05 19:44:15;;;;;;;17.52;12.80;;;;;;;;;;9982183;28;20053;-66
2022/12/05 19:49:14;;;;;;;15.82;12.57;;;;;;;;;;9992049;28;20046;-66
2022/12/05 19:54:08;;;;;;;15.93;12.85;;;;;;;;;;9992157;28;20050;-66
2022/12/05 19:59:01;;;;;;;19.55;13.90;;;;;;;;;;9991797;28;20137;-66
2022/12/05 20:04:04;;;;;;;17.67;14.32;;;;;;;;;;9991831;28;20140;-66
2022/12/05 20:08:58;;;;;;;18.05;12.77;;;;;;;;;;9991577;28;20394;-66
2022/12/05 20:13:53;;;;;;;18.50;12.57;;;;;;;;;;9991528;28;20133;-66
2022/12/05 20:18:47;;;;;;;18.70;12.90;;;;;;;;;;9981869;28;20054;-66
2022/12/05 20:23:41;;;;;;;15.57;12.70;;;;;;;;;;9989800;28;20065;-66
2022/12/05 20:28:35;;;;;;;17.35;14.07;;;;;;;;;;9990802;28;20506;-66
2022/12/05 20:33:28;;;;;;;19.90;14.95;;;;;;;;;;9990349;28;20105;-66
2022/12/05 20:38:22;;;;;;;17.30;14.13;;;;;;;;;;9990430;28;20473;-66
2022/12/05 20:43:15;;;;;;;17.60;13.38;;;;;;;;;;9990418;28;20046;-66
2022/12/05 20:48:09;;;;;;;17.95;13.63;;;;;;;;;;9990402;28;20050;-66
2022/12/05 20:53:03;;;;;;;18.33;14.57;;;;;;;;;;9990420;28;20058;-65
2022/12/05 20:57:56;;;;;;;18.17;14.52;;;;;;;;;;9990259;28;20133;-66
2022/12/05 21:02:56;;;;;;;19.25;14.80;;;;;;;;;;9989238;28;20141;-66
2022/12/05 21:07:50;;;;;;;21.27;15.18;;;;;;;;;;9989535;28;20109;-66
2022/12/05 21:12:44;;;;;;;19.20;14.70;;;;;;;;;;9989065;28;20050;-65
2022/12/05 21:17:38;;;;;;;18.15;13.57;;;;;;;;;;9989206;28;20054;-66
2022/12/05 21:22:32;;;;;;;21.17;16.83;;;;;;;;;;9988499;28;20133;-65
2022/12/05 21:27:26;;;;;;;21.40;17.92;;;;;;;;;;9988328;28;20050;-66
2022/12/05 21:32:20;;;;;;;26.13;20.13;;;;;;;;;;9987522;28;21300;-66
2022/12/05 21:37:15;;;;;;;25.65;18.55;;;;;;;;;;9989253;28;20394;-65
2022/12/05 21:42:09;;;;;;;25.77;18.80;;;;;;;;;;9988671;28;20058;-66
2022/12/05 21:47:03;;;;;;;24.25;17.70;;;;;;;;;;9988112;28;20050;-65
2022/12/05 21:51:57;;;;;;;23.52;16.17;;;;;;;;;;9987745;28;20092;-65
2022/12/05 21:56:50;;;;;;;21.05;16.70;;;;;;;;;;9987661;28;20082;-65
2022/12/05 22:01:45;;;;;;;22.33;16.33;;;;;;;;;;9987673;28;20070;-66
2022/12/05 22:06:39;;;;;;;23.20;14.55;;;;;;;;;;9987574;28;20046;-65
2022/12/05 22:11:32;;;;;;;21.75;14.63;;;;;;;;;;9987358;28;20636;-65
2022/12/05 22:16:26;;;;;;;23.42;14.77;;;;;;;;;;9987783;28;20137;-65
2022/12/05 22:21:26;;;;;;;19.92;15.27;;;;;;;;;;9987109;28;20053;-66
2022/12/05 22:26:22;;;;;;;18.55;13.88;;;;;;;;;;9985079;28;20121;-65
2022/12/05 22:31:16;;;;;;;18.17;14.00;;;;;;;;;;9987616;28;20057;-65
2022/12/05 22:36:10;;;;;;;18.40;15.40;;;;;;;;;;9987039;28;20468;-65
2022/12/05 22:41:14;;;;;;;19.70;14.35;;;;;;;;;;9987368;28;20061;-65
2022/12/05 22:46:10;;;;;;;18.10;13.23;;;;;;;;;;9978513;28;20054;-65
2022/12/05 22:51:05;;;;;;;16.58;11.75;;;;;;;;;;9989263;28;20046;-65
2022/12/05 22:56:19;;;;;;;15.98;12.52;;;;;;;;;;9986352;28;20050;-65
2022/12/05 23:01:16;;;;;;;13.95;11.48;;;;;;;;;;9993794;28;20177;-66
2022/12/05 23:06:11;;;;;;;15.50;11.93;;;;;;;;;;9990225;28;20514;-65
2022/12/05 23:11:06;;;;;;;15.00;12.25;;;;;;;;;;9983628;28;20050;-65
2022/12/05 23:16:12;;;;;;;19.23;13.20;;;;;;;;;;9990585;28;20128;-66
2022/12/05 23:21:07;;;;;;;15.20;11.85;;;;;;;;;;9993595;28;20506;-65
2022/12/05 23:26:00;;;;;;;14.95;12.13;;;;;;;;;;9993159;28;20065;-66
2022/12/05 23:30:54;;;;;;;14.20;11.30;;;;;;;;;;9985594;28;20046;-66
2022/12/05 23:35:54;;;;;;;12.55;10.63;;;;;;;;;;9987208;28;20417;-65
2022/12/05 23:41:15;;;;;;;15.70;11.50;;;;;;;;;;9989029;28;20050;-66
2022/12/05 23:46:10;;;;;;;12.27;9.95;;;;;;;;;;9992466;28;20137;-65
2022/12/05 23:51:10;;;;;;;12.63;10.63;;;;;;;;;;9991838;28;20054;-66
2022/12/05 23:56:26;;;;;;;13.48;10.15;;;;;;;;;;9989727;28;20465;-65
